sensor_id;sensor_type;location;lat;lon;timestamp;temperature;humidity
64689;DHT22;62504;46.070;14.492;2023-08-06T00:01:54;17.40;99.90
64689;DHT22;62504;46.070;14.492;2023-08-06T00:04:20;17.50;99.90
64689;DHT22;62504;46.070;14.492;2023-08-06T00:06:45;17.40;99.90
64689;DHT22;62504;46.070;14.492;2023-08-06T00:09:11;17.50;99.90
64689;DHT22;62504;46.070;14.492;2023-08-06T00:11:37;17.40;99.90
64689;DHT22;62504;46.070;14.492;2023-08-06T00:14:02;17.40;99.90
64689;DHT22;62504;46.070;14.492;2023-08-06T00:16:28;17.40;99.90
64689;DHT22;62504;46.070;14.492;2023-08-06T00:18:54;17.50;99.90
64689;DHT22;62504;46.070;14.492;2023-08-06T00:21:19;17.50;99.90
64689;DHT22;62504;46.070;14.492;2023-08-06T00:23:45;17.40;99.90
64689;DHT22;62504;46.070;14.492;2023-08-06T00:26:11;17.50;99.90
64689;DHT22;62504;46.070;14.492;2023-08-06T00:28:36;17.40;99.90
64689;DHT22;62504;46.070;14.492;2023-08-06T00:31:02;17.30;99.90
64689;DHT22;62504;46.070;14.492;2023-08-06T00:33:28;17.30;99.90
64689;DHT22;62504;46.070;14.492;2023-08-06T00:35:53;17.30;99.90
64689;DHT22;62504;46.070;14.492;2023-08-06T00:38:19;17.20;99.90
64689;DHT22;62504;46.070;14.492;2023-08-06T00:40:45;17.40;99.90
64689;DHT22;62504;46.070;14.492;2023-08-06T00:43:10;17.50;99.90
64689;DHT22;62504;46.070;14.492;2023-08-06T00:45:37;17.50;99.90
64689;DHT22;62504;46.070;14.492;2023-08-06T00:48:04;17.50;99.90
64689;DHT22;62504;46.070;14.492;2023-08-06T00:50:30;17.40;99.90
64689;DHT22;62504;46.070;14.492;2023-08-06T00:52:56;17.50;99.90
64689;DHT22;62504;46.070;14.492;2023-08-06T00:55:23;17.50;99.90
64689;DHT22;62504;46.070;14.492;2023-08-06T00:57:48;17.50;99.90
64689;DHT22;62504;46.070;14.492;2023-08-06T01:00:16;17.40;99.90
64689;DHT22;62504;46.070;14.492;2023-08-06T01:02:42;17.50;99.90
64689;DHT22;62504;46.070;14.492;2023-08-06T01:05:08;17.50;99.90
64689;DHT22;62504;46.070;14.492;2023-08-06T01:13:33;17.40;99.90
64689;DHT22;62504;46.070;14.492;2023-08-06T01:16:03;17.30;99.90
64689;DHT22;62504;46.070;14.492;2023-08-06T01:18:31;17.50;99.90
64689;DHT22;62504;46.070;14.492;2023-08-06T01:20:57;17.50;99.90
64689;DHT22;62504;46.070;14.492;2023-08-06T01:23:23;17.50;99.90
64689;DHT22;62504;46.070;14.492;2023-08-06T01:26:19;17.40;99.90
64689;DHT22;62504;46.070;14.492;2023-08-06T01:31:32;17.30;99.90
64689;DHT22;62504;46.070;14.492;2023-08-06T01:34:01;17.40;99.90
64689;DHT22;62504;46.070;14.492;2023-08-06T01:36:28;17.50;99.90
64689;DHT22;62504;46.070;14.492;2023-08-06T01:38:54;17.50;99.90
64689;DHT22;62504;46.070;14.492;2023-08-06T01:41:20;17.40;99.90
64689;DHT22;62504;46.070;14.492;2023-08-06T01:43:45;17.30;99.90
64689;DHT22;62504;46.070;14.492;2023-08-06T01:46:11;17.30;99.90
64689;DHT22;62504;46.070;14.492;2023-08-06T01:48:37;17.20;99.90
64689;DHT22;62504;46.070;14.492;2023-08-06T01:51:06;17.30;99.90
64689;DHT22;62504;46.070;14.492;2023-08-06T01:53:32;17.30;99.90
64689;DHT22;62504;46.070;14.492;2023-08-06T01:55:58;17.20;99.90
64689;DHT22;62504;46.070;14.492;2023-08-06T01:58:24;17.10;99.90
64689;DHT22;62504;46.070;14.492;2023-08-06T02:00:49;17.20;99.90
64689;DHT22;62504;46.070;14.492;2023-08-06T02:03:15;17.40;99.90
64689;DHT22;62504;46.070;14.492;2023-08-06T02:05:41;17.30;99.90
64689;DHT22;62504;46.070;14.492;2023-08-06T02:08:07;17.20;99.90
64689;DHT22;62504;46.070;14.492;2023-08-06T02:10:33;17.20;99.90
64689;DHT22;62504;46.070;14.492;2023-08-06T02:12:58;17.20;99.90
64689;DHT22;62504;46.070;14.492;2023-08-06T02:15:24;17.20;99.90
64689;DHT22;62504;46.070;14.492;2023-08-06T02:17:50;17.10;99.90
64689;DHT22;62504;46.070;14.492;2023-08-06T02:20:16;17.20;99.90
64689;DHT22;62504;46.070;14.492;2023-08-06T02:22:41;17.20;99.90
64689;DHT22;62504;46.070;14.492;2023-08-06T02:25:07;17.20;99.90
64689;DHT22;62504;46.070;14.492;2023-08-06T02:27:33;17.20;99.90
64689;DHT22;62504;46.070;14.492;2023-08-06T02:29:59;17.30;99.90
64689;DHT22;62504;46.070;14.492;2023-08-06T02:32:24;17.40;99.90
64689;DHT22;62504;46.070;14.492;2023-08-06T02:34:50;17.30;99.90
64689;DHT22;62504;46.070;14.492;2023-08-06T02:37:16;17.10;99.90
64689;DHT22;62504;46.070;14.492;2023-08-06T02:39:41;17.20;99.90
64689;DHT22;62504;46.070;14.492;2023-08-06T02:42:07;17.10;99.90
64689;DHT22;62504;46.070;14.492;2023-08-06T02:44:34;17.30;99.90
64689;DHT22;62504;46.070;14.492;2023-08-06T02:47:00;17.20;99.90
64689;DHT22;62504;46.070;14.492;2023-08-06T02:49:26;17.20;99.90
64689;DHT22;62504;46.070;14.492;2023-08-06T02:51:52;17.20;99.90
64689;DHT22;62504;46.070;14.492;2023-08-06T02:54:20;17.30;99.90
64689;DHT22;62504;46.070;14.492;2023-08-06T02:56:46;17.30;99.90
64689;DHT22;62504;46.070;14.492;2023-08-06T02:59:12;17.30;99.90
64689;DHT22;62504;46.070;14.492;2023-08-06T03:01:38;17.30;99.90
64689;DHT22;62504;46.070;14.492;2023-08-06T03:04:04;17.30;99.90
64689;DHT22;62504;46.070;14.492;2023-08-06T03:06:30;17.40;99.90
64689;DHT22;62504;46.070;14.492;2023-08-06T03:08:56;17.20;99.90
64689;DHT22;62504;46.070;14.492;2023-08-06T03:11:22;17.10;99.90
64689;DHT22;62504;46.070;14.492;2023-08-06T03:13:48;17.10;99.90
64689;DHT22;62504;46.070;14.492;2023-08-06T03:16:14;17.10;99.90
64689;DHT22;62504;46.070;14.492;2023-08-06T03:18:40;17.20;99.90
64689;DHT22;62504;46.070;14.492;2023-08-06T03:21:05;17.30;99.90
64689;DHT22;62504;46.070;14.492;2023-08-06T03:23:31;17.20;99.90
64689;DHT22;62504;46.070;14.492;2023-08-06T03:26:01;17.10;99.90
64689;DHT22;62504;46.070;14.492;2023-08-06T03:28:28;17.10;99.90
64689;DHT22;62504;46.070;14.492;2023-08-06T03:31:03;17.20;99.90
64689;DHT22;62504;46.070;14.492;2023-08-06T03:33:29;17.20;99.90
64689;DHT22;62504;46.070;14.492;2023-08-06T03:35:55;17.10;99.90
64689;DHT22;62504;46.070;14.492;2023-08-06T03:38:20;17.10;99.90
64689;DHT22;62504;46.070;14.492;2023-08-06T03:40:46;17.10;99.90
64689;DHT22;62504;46.070;14.492;2023-08-06T03:43:12;17.10;99.90
64689;DHT22;62504;46.070;14.492;2023-08-06T03:45:38;17.30;99.90
64689;DHT22;62504;46.070;14.492;2023-08-06T03:48:04;17.10;99.90
64689;DHT22;62504;46.070;14.492;2023-08-06T03:50:29;17.00;99.90
64689;DHT22;62504;46.070;14.492;2023-08-06T03:52:55;17.10;99.90
64689;DHT22;62504;46.070;14.492;2023-08-06T03:55:21;17.10;99.90
64689;DHT22;62504;46.070;14.492;2023-08-06T03:57:47;17.20;99.90
64689;DHT22;62504;46.070;14.492;2023-08-06T04:00:13;17.30;99.90
64689;DHT22;62504;46.070;14.492;2023-08-06T04:02:38;17.30;99.90
64689;DHT22;62504;46.070;14.492;2023-08-06T04:05:04;17.30;99.90
64689;DHT22;62504;46.070;14.492;2023-08-06T04:07:30;17.30;99.90
64689;DHT22;62504;46.070;14.492;2023-08-06T04:10:01;17.20;99.90
64689;DHT22;62504;46.070;14.492;2023-08-06T04:12:28;17.20;99.90
64689;DHT22;62504;46.070;14.492;2023-08-06T04:14:54;17.20;99.90
64689;DHT22;62504;46.070;14.492;2023-08-06T04:17:21;17.10;99.90
64689;DHT22;62504;46.070;14.492;2023-08-06T04:19:49;17.20;99.90
64689;DHT22;62504;46.070;14.492;2023-08-06T04:22:15;17.20;99.90
64689;DHT22;62504;46.070;14.492;2023-08-06T04:24:42;17.20;99.90
64689;DHT22;62504;46.070;14.492;2023-08-06T04:27:09;17.20;99.90
64689;DHT22;62504;46.070;14.492;2023-08-06T04:29:35;17.20;99.90
64689;DHT22;62504;46.070;14.492;2023-08-06T04:32:00;17.30;99.90
64689;DHT22;62504;46.070;14.492;2023-08-06T04:34:26;17.30;99.90
64689;DHT22;62504;46.070;14.492;2023-08-06T04:36:51;17.30;99.90
64689;DHT22;62504;46.070;14.492;2023-08-06T04:39:17;17.30;99.90
64689;DHT22;62504;46.070;14.492;2023-08-06T04:41:43;17.30;99.90
64689;DHT22;62504;46.070;14.492;2023-08-06T04:44:08;17.30;99.90
64689;DHT22;62504;46.070;14.492;2023-08-06T04:46:34;17.40;99.90
64689;DHT22;62504;46.070;14.492;2023-08-06T04:49:00;17.30;99.90
64689;DHT22;62504;46.070;14.492;2023-08-06T04:51:25;17.30;99.90
64689;DHT22;62504;46.070;14.492;2023-08-06T04:53:51;17.40;99.90
64689;DHT22;62504;46.070;14.492;2023-08-06T04:56:17;17.20;99.90
64689;DHT22;62504;46.070;14.492;2023-08-06T04:58:42;17.20;99.90
64689;DHT22;62504;46.070;14.492;2023-08-06T05:01:08;17.30;99.90
64689;DHT22;62504;46.070;14.492;2023-08-06T05:03:34;17.30;99.90
64689;DHT22;62504;46.070;14.492;2023-08-06T05:05:59;17.30;99.90
64689;DHT22;62504;46.070;14.492;2023-08-06T05:08:25;17.20;99.90
64689;DHT22;62504;46.070;14.492;2023-08-06T05:10:51;17.30;99.90
64689;DHT22;62504;46.070;14.492;2023-08-06T05:13:16;17.30;99.90
64689;DHT22;62504;46.070;14.492;2023-08-06T05:15:42;17.30;99.90
64689;DHT22;62504;46.070;14.492;2023-08-06T05:18:08;17.20;99.90
64689;DHT22;62504;46.070;14.492;2023-08-06T05:20:39;17.30;99.90
64689;DHT22;62504;46.070;14.492;2023-08-06T05:23:05;17.20;99.90
64689;DHT22;62504;46.070;14.492;2023-08-06T05:25:30;17.30;99.90
64689;DHT22;62504;46.070;14.492;2023-08-06T05:27:57;17.30;99.90
64689;DHT22;62504;46.070;14.492;2023-08-06T05:30:22;17.20;99.90
64689;DHT22;62504;46.070;14.492;2023-08-06T05:32:48;17.20;99.90
64689;DHT22;62504;46.070;14.492;2023-08-06T05:35:14;17.30;99.90
64689;DHT22;62504;46.070;14.492;2023-08-06T05:37:39;17.40;99.90
64689;DHT22;62504;46.070;14.492;2023-08-06T05:40:05;17.40;99.90
64689;DHT22;62504;46.070;14.492;2023-08-06T05:42:31;17.40;99.90
64689;DHT22;62504;46.070;14.492;2023-08-06T05:44:57;17.30;99.90
64689;DHT22;62504;46.070;14.492;2023-08-06T05:47:22;17.30;99.90
64689;DHT22;62504;46.070;14.492;2023-08-06T05:49:48;17.30;99.90
64689;DHT22;62504;46.070;14.492;2023-08-06T05:52:14;17.40;99.90
64689;DHT22;62504;46.070;14.492;2023-08-06T05:54:39;17.30;99.90
64689;DHT22;62504;46.070;14.492;2023-08-06T05:57:06;17.30;99.90
64689;DHT22;62504;46.070;14.492;2023-08-06T05:59:32;17.30;99.90
64689;DHT22;62504;46.070;14.492;2023-08-06T06:01:57;17.40;99.90
64689;DHT22;62504;46.070;14.492;2023-08-06T06:04:25;17.50;99.90
64689;DHT22;62504;46.070;14.492;2023-08-06T06:06:50;17.50;99.90
64689;DHT22;62504;46.070;14.492;2023-08-06T06:09:16;17.30;99.90
64689;DHT22;62504;46.070;14.492;2023-08-06T06:11:42;17.40;99.90
64689;DHT22;62504;46.070;14.492;2023-08-06T06:14:07;17.40;99.90
64689;DHT22;62504;46.070;14.492;2023-08-06T06:16:34;17.50;99.90
64689;DHT22;62504;46.070;14.492;2023-08-06T06:19:00;17.50;99.90
64689;DHT22;62504;46.070;14.492;2023-08-06T06:21:25;17.60;99.90
64689;DHT22;62504;46.070;14.492;2023-08-06T06:23:51;17.50;99.90
64689;DHT22;62504;46.070;14.492;2023-08-06T06:26:18;17.50;99.90
64689;DHT22;62504;46.070;14.492;2023-08-06T06:28:43;17.60;99.90
64689;DHT22;62504;46.070;14.492;2023-08-06T06:31:09;17.70;99.90
64689;DHT22;62504;46.070;14.492;2023-08-06T06:33:35;17.80;99.90
64689;DHT22;62504;46.070;14.492;2023-08-06T06:36:01;17.80;99.90
64689;DHT22;62504;46.070;14.492;2023-08-06T06:38:29;17.80;99.90
64689;DHT22;62504;46.070;14.492;2023-08-06T06:40:58;17.80;99.90
64689;DHT22;62504;46.070;14.492;2023-08-06T06:43:24;17.80;99.90
64689;DHT22;62504;46.070;14.492;2023-08-06T06:45:55;17.80;99.90
64689;DHT22;62504;46.070;14.492;2023-08-06T06:48:21;17.70;99.90
64689;DHT22;62504;46.070;14.492;2023-08-06T06:50:47;17.70;99.90
64689;DHT22;62504;46.070;14.492;2023-08-06T06:53:14;17.80;99.90
64689;DHT22;62504;46.070;14.492;2023-08-06T06:55:39;17.80;99.90
64689;DHT22;62504;46.070;14.492;2023-08-06T06:58:05;17.80;99.90
64689;DHT22;62504;46.070;14.492;2023-08-06T07:00:31;17.90;99.90
64689;DHT22;62504;46.070;14.492;2023-08-06T07:02:56;17.90;99.90
64689;DHT22;62504;46.070;14.492;2023-08-06T07:05:22;18.00;99.90
64689;DHT22;62504;46.070;14.492;2023-08-06T07:07:48;18.00;99.90
64689;DHT22;62504;46.070;14.492;2023-08-06T07:10:14;17.80;99.90
64689;DHT22;62504;46.070;14.492;2023-08-06T07:12:39;17.90;99.90
64689;DHT22;62504;46.070;14.492;2023-08-06T07:15:06;17.90;99.90
64689;DHT22;62504;46.070;14.492;2023-08-06T07:17:32;18.00;99.90
64689;DHT22;62504;46.070;14.492;2023-08-06T07:19:58;18.10;99.90
64689;DHT22;62504;46.070;14.492;2023-08-06T07:22:23;18.40;99.90
64689;DHT22;62504;46.070;14.492;2023-08-06T07:24:49;18.40;99.90
64689;DHT22;62504;46.070;14.492;2023-08-06T07:27:15;18.50;99.90
64689;DHT22;62504;46.070;14.492;2023-08-06T07:29:41;18.60;99.90
64689;DHT22;62504;46.070;14.492;2023-08-06T07:32:07;18.60;99.90
64689;DHT22;62504;46.070;14.492;2023-08-06T07:34:33;18.50;99.90
64689;DHT22;62504;46.070;14.492;2023-08-06T07:36:58;18.40;99.90
64689;DHT22;62504;46.070;14.492;2023-08-06T07:39:25;18.40;99.90
64689;DHT22;62504;46.070;14.492;2023-08-06T07:41:50;18.40;99.90
64689;DHT22;62504;46.070;14.492;2023-08-06T07:44:16;18.40;99.90
64689;DHT22;62504;46.070;14.492;2023-08-06T07:46:42;18.60;99.90
64689;DHT22;62504;46.070;14.492;2023-08-06T07:49:09;18.70;99.90
64689;DHT22;62504;46.070;14.492;2023-08-06T07:51:36;18.80;99.90
64689;DHT22;62504;46.070;14.492;2023-08-06T07:54:02;18.80;99.90
64689;DHT22;62504;46.070;14.492;2023-08-06T07:56:28;18.80;99.90
64689;DHT22;62504;46.070;14.492;2023-08-06T07:58:54;18.70;99.90
64689;DHT22;62504;46.070;14.492;2023-08-06T08:01:20;18.80;99.90
64689;DHT22;62504;46.070;14.492;2023-08-06T08:03:45;18.90;99.90
64689;DHT22;62504;46.070;14.492;2023-08-06T08:06:11;18.90;99.90
64689;DHT22;62504;46.070;14.492;2023-08-06T08:08:37;18.90;99.90
64689;DHT22;62504;46.070;14.492;2023-08-06T08:11:05;18.80;99.90
64689;DHT22;62504;46.070;14.492;2023-08-06T08:13:30;18.90;99.90
64689;DHT22;62504;46.070;14.492;2023-08-06T08:15:58;18.90;99.90
64689;DHT22;62504;46.070;14.492;2023-08-06T08:18:24;18.80;99.90
64689;DHT22;62504;46.070;14.492;2023-08-06T08:20:50;18.80;99.90
64689;DHT22;62504;46.070;14.492;2023-08-06T08:23:16;18.90;99.90
64689;DHT22;62504;46.070;14.492;2023-08-06T08:25:41;18.90;99.90
64689;DHT22;62504;46.070;14.492;2023-08-06T08:28:07;19.10;99.90
64689;DHT22;62504;46.070;14.492;2023-08-06T08:30:33;19.20;99.90
64689;DHT22;62504;46.070;14.492;2023-08-06T08:32:59;19.20;99.90
64689;DHT22;62504;46.070;14.492;2023-08-06T08:35:25;19.20;99.90
64689;DHT22;62504;46.070;14.492;2023-08-06T08:37:50;19.10;99.90
64689;DHT22;62504;46.070;14.492;2023-08-06T08:40:17;19.10;99.90
64689;DHT22;62504;46.070;14.492;2023-08-06T08:42:43;19.00;99.90
64689;DHT22;62504;46.070;14.492;2023-08-06T08:45:13;19.10;99.90
64689;DHT22;62504;46.070;14.492;2023-08-06T08:47:41;19.20;99.90
64689;DHT22;62504;46.070;14.492;2023-08-06T08:50:08;19.30;99.90
64689;DHT22;62504;46.070;14.492;2023-08-06T08:52:36;19.40;99.90
64689;DHT22;62504;46.070;14.492;2023-08-06T08:55:04;19.60;99.90
64689;DHT22;62504;46.070;14.492;2023-08-06T08:57:29;19.60;99.90
64689;DHT22;62504;46.070;14.492;2023-08-06T08:59:55;19.50;99.90
64689;DHT22;62504;46.070;14.492;2023-08-06T09:02:21;19.40;99.90
64689;DHT22;62504;46.070;14.492;2023-08-06T09:04:49;19.40;99.90
64689;DHT22;62504;46.070;14.492;2023-08-06T09:07:18;19.40;99.90
64689;DHT22;62504;46.070;14.492;2023-08-06T09:09:46;19.30;99.90
64689;DHT22;62504;46.070;14.492;2023-08-06T09:12:17;19.30;99.90
64689;DHT22;62504;46.070;14.492;2023-08-06T09:14:43;19.30;99.90
64689;DHT22;62504;46.070;14.492;2023-08-06T09:17:09;19.30;99.90
64689;DHT22;62504;46.070;14.492;2023-08-06T09:19:41;19.40;99.90
64689;DHT22;62504;46.070;14.492;2023-08-06T09:22:12;19.40;99.90
64689;DHT22;62504;46.070;14.492;2023-08-06T09:24:40;19.40;99.90
64689;DHT22;62504;46.070;14.492;2023-08-06T09:27:13;19.40;99.90
64689;DHT22;62504;46.070;14.492;2023-08-06T09:29:44;19.40;99.90
64689;DHT22;62504;46.070;14.492;2023-08-06T09:32:13;19.40;99.90
64689;DHT22;62504;46.070;14.492;2023-08-06T09:34:41;19.50;99.90
64689;DHT22;62504;46.070;14.492;2023-08-06T09:37:09;19.60;99.90
64689;DHT22;62504;46.070;14.492;2023-08-06T09:39:38;19.70;99.90
64689;DHT22;62504;46.070;14.492;2023-08-06T09:42:04;19.70;99.90
64689;DHT22;62504;46.070;14.492;2023-08-06T09:44:32;19.70;99.90
64689;DHT22;62504;46.070;14.492;2023-08-06T09:46:59;19.70;99.90
64689;DHT22;62504;46.070;14.492;2023-08-06T09:49:47;19.90;99.90
64689;DHT22;62504;46.070;14.492;2023-08-06T09:52:13;19.90;99.90
64689;DHT22;62504;46.070;14.492;2023-08-06T09:54:39;20.00;99.90
64689;DHT22;62504;46.070;14.492;2023-08-06T09:57:05;20.00;99.90
64689;DHT22;62504;46.070;14.492;2023-08-06T09:59:32;20.00;99.90
64689;DHT22;62504;46.070;14.492;2023-08-06T10:01:58;20.00;99.90
64689;DHT22;62504;46.070;14.492;2023-08-06T10:04:25;20.00;99.90
64689;DHT22;62504;46.070;14.492;2023-08-06T10:06:51;20.00;99.90
64689;DHT22;62504;46.070;14.492;2023-08-06T10:09:17;20.00;99.90
64689;DHT22;62504;46.070;14.492;2023-08-06T10:11:50;20.10;99.90
64689;DHT22;62504;46.070;14.492;2023-08-06T10:14:25;20.20;99.90
64689;DHT22;62504;46.070;14.492;2023-08-06T10:16:52;20.40;99.90
64689;DHT22;62504;46.070;14.492;2023-08-06T10:19:20;20.60;99.90
64689;DHT22;62504;46.070;14.492;2023-08-06T10:22:11;20.90;99.90
64689;DHT22;62504;46.070;14.492;2023-08-06T10:24:57;20.90;99.90
64689;DHT22;62504;46.070;14.492;2023-08-06T10:30:29;21.10;99.90
64689;DHT22;62504;46.070;14.492;2023-08-06T10:33:01;21.20;99.90
64689;DHT22;62504;46.070;14.492;2023-08-06T10:35:37;20.90;99.90
64689;DHT22;62504;46.070;14.492;2023-08-06T10:40:36;20.70;99.90
64689;DHT22;62504;46.070;14.492;2023-08-06T10:43:03;20.60;99.90
64689;DHT22;62504;46.070;14.492;2023-08-06T10:45:29;20.60;99.90
64689;DHT22;62504;46.070;14.492;2023-08-06T10:47:56;20.60;99.90
64689;DHT22;62504;46.070;14.492;2023-08-06T10:50:25;20.50;99.90
64689;DHT22;62504;46.070;14.492;2023-08-06T10:52:51;20.30;99.90
64689;DHT22;62504;46.070;14.492;2023-08-06T10:55:28;20.30;99.90
64689;DHT22;62504;46.070;14.492;2023-08-06T10:57:55;20.20;99.90
64689;DHT22;62504;46.070;14.492;2023-08-06T11:00:22;20.20;99.90
64689;DHT22;62504;46.070;14.492;2023-08-06T11:02:50;20.10;99.90
64689;DHT22;62504;46.070;14.492;2023-08-06T11:05:16;20.00;99.90
64689;DHT22;62504;46.070;14.492;2023-08-06T11:07:42;20.00;99.90
64689;DHT22;62504;46.070;14.492;2023-08-06T11:10:10;19.70;99.90
64689;DHT22;62504;46.070;14.492;2023-08-06T11:12:36;19.50;99.90
64689;DHT22;62504;46.070;14.492;2023-08-06T11:15:03;19.20;99.90
64689;DHT22;62504;46.070;14.492;2023-08-06T11:17:30;19.20;99.90
64689;DHT22;62504;46.070;14.492;2023-08-06T11:19:59;19.10;99.90
64689;DHT22;62504;46.070;14.492;2023-08-06T11:22:25;19.00;99.90
64689;DHT22;62504;46.070;14.492;2023-08-06T11:24:51;19.00;99.90
64689;DHT22;62504;46.070;14.492;2023-08-06T11:27:17;19.00;99.90
64689;DHT22;62504;46.070;14.492;2023-08-06T11:29:43;18.90;99.90
64689;DHT22;62504;46.070;14.492;2023-08-06T11:32:09;18.80;99.90
64689;DHT22;62504;46.070;14.492;2023-08-06T11:34:36;18.80;99.90
64689;DHT22;62504;46.070;14.492;2023-08-06T11:37:03;18.70;99.90
64689;DHT22;62504;46.070;14.492;2023-08-06T11:39:35;18.60;99.90
64689;DHT22;62504;46.070;14.492;2023-08-06T11:42:06;18.30;99.90
64689;DHT22;62504;46.070;14.492;2023-08-06T11:44:34;18.40;99.90
64689;DHT22;62504;46.070;14.492;2023-08-06T11:47:01;18.40;99.90
64689;DHT22;62504;46.070;14.492;2023-08-06T11:49:37;18.30;99.90
64689;DHT22;62504;46.070;14.492;2023-08-06T11:52:18;18.10;99.90
64689;DHT22;62504;46.070;14.492;2023-08-06T11:57:25;18.00;99.90
64689;DHT22;62504;46.070;14.492;2023-08-06T11:59:51;17.90;99.90
64689;DHT22;62504;46.070;14.492;2023-08-06T12:02:16;18.00;99.90
64689;DHT22;62504;46.070;14.492;2023-08-06T12:05:22;18.00;99.90
64689;DHT22;62504;46.070;14.492;2023-08-06T12:07:56;18.00;99.90
64689;DHT22;62504;46.070;14.492;2023-08-06T12:10:24;17.80;99.90
64689;DHT22;62504;46.070;14.492;2023-08-06T12:12:51;17.80;99.90
64689;DHT22;62504;46.070;14.492;2023-08-06T12:15:16;17.70;99.90
64689;DHT22;62504;46.070;14.492;2023-08-06T12:17:42;17.70;99.90
64689;DHT22;62504;46.070;14.492;2023-08-06T12:20:09;17.60;99.90
64689;DHT22;62504;46.070;14.492;2023-08-06T12:22:35;17.60;99.90
64689;DHT22;62504;46.070;14.492;2023-08-06T12:25:03;17.70;99.90
64689;DHT22;62504;46.070;14.492;2023-08-06T12:27:29;17.80;99.90
64689;DHT22;62504;46.070;14.492;2023-08-06T12:29:55;17.80;99.90
64689;DHT22;62504;46.070;14.492;2023-08-06T12:32:20;17.90;99.90
64689;DHT22;62504;46.070;14.492;2023-08-06T12:34:47;17.90;99.90
64689;DHT22;62504;46.070;14.492;2023-08-06T12:37:13;17.90;99.90
64689;DHT22;62504;46.070;14.492;2023-08-06T12:39:39;17.80;99.90
64689;DHT22;62504;46.070;14.492;2023-08-06T12:42:05;17.80;99.90
64689;DHT22;62504;46.070;14.492;2023-08-06T12:44:32;17.80;99.90
64689;DHT22;62504;46.070;14.492;2023-08-06T12:46:58;17.90;99.90
64689;DHT22;62504;46.070;14.492;2023-08-06T12:49:25;17.90;99.90
64689;DHT22;62504;46.070;14.492;2023-08-06T12:51:53;17.90;99.90
64689;DHT22;62504;46.070;14.492;2023-08-06T12:54:19;17.90;99.90
64689;DHT22;62504;46.070;14.492;2023-08-06T12:56:47;17.80;99.90
64689;DHT22;62504;46.070;14.492;2023-08-06T12:59:17;17.70;99.90
64689;DHT22;62504;46.070;14.492;2023-08-06T13:01:43;17.70;99.90
64689;DHT22;62504;46.070;14.492;2023-08-06T13:04:09;17.60;99.90
64689;DHT22;62504;46.070;14.492;2023-08-06T13:06:36;17.60;99.90
64689;DHT22;62504;46.070;14.492;2023-08-06T13:09:09;17.60;99.90
64689;DHT22;62504;46.070;14.492;2023-08-06T13:11:39;17.60;99.90
64689;DHT22;62504;46.070;14.492;2023-08-06T13:14:09;17.60;99.90
64689;DHT22;62504;46.070;14.492;2023-08-06T13:16:37;17.40;99.90
64689;DHT22;62504;46.070;14.492;2023-08-06T13:19:04;17.30;99.90
64689;DHT22;62504;46.070;14.492;2023-08-06T13:21:34;17.10;99.90
64689;DHT22;62504;46.070;14.492;2023-08-06T13:24:01;16.90;99.90
64689;DHT22;62504;46.070;14.492;2023-08-06T13:26:31;16.50;99.90
64689;DHT22;62504;46.070;14.492;2023-08-06T13:28:58;16.40;99.90
64689;DHT22;62504;46.070;14.492;2023-08-06T13:31:24;16.20;99.90
64689;DHT22;62504;46.070;14.492;2023-08-06T13:33:50;16.10;99.90
64689;DHT22;62504;46.070;14.492;2023-08-06T13:36:18;16.60;99.90
64689;DHT22;62504;46.070;14.492;2023-08-06T13:38:44;17.00;99.90
64689;DHT22;62504;46.070;14.492;2023-08-06T13:41:10;17.30;99.90
64689;DHT22;62504;46.070;14.492;2023-08-06T13:43:36;17.50;99.90
64689;DHT22;62504;46.070;14.492;2023-08-06T13:46:01;17.60;99.90
64689;DHT22;62504;46.070;14.492;2023-08-06T13:48:27;17.50;99.90
64689;DHT22;62504;46.070;14.492;2023-08-06T13:50:53;17.60;99.90
64689;DHT22;62504;46.070;14.492;2023-08-06T13:53:18;17.70;99.90
64689;DHT22;62504;46.070;14.492;2023-08-06T13:55:44;17.80;99.90
64689;DHT22;62504;46.070;14.492;2023-08-06T13:58:10;17.80;99.90
64689;DHT22;62504;46.070;14.492;2023-08-06T14:00:36;18.00;99.90
64689;DHT22;62504;46.070;14.492;2023-08-06T14:03:02;18.10;99.90
64689;DHT22;62504;46.070;14.492;2023-08-06T14:05:27;18.20;99.90
64689;DHT22;62504;46.070;14.492;2023-08-06T14:07:53;18.20;99.90
64689;DHT22;62504;46.070;14.492;2023-08-06T14:10:19;18.20;99.90
64689;DHT22;62504;46.070;14.492;2023-08-06T14:12:44;18.20;99.90
64689;DHT22;62504;46.070;14.492;2023-08-06T14:15:11;18.30;99.90
64689;DHT22;62504;46.070;14.492;2023-08-06T14:17:37;18.40;99.90
64689;DHT22;62504;46.070;14.492;2023-08-06T14:20:03;18.30;99.90
64689;DHT22;62504;46.070;14.492;2023-08-06T14:22:30;18.10;99.90
64689;DHT22;62504;46.070;14.492;2023-08-06T14:24:59;17.80;99.90
64689;DHT22;62504;46.070;14.492;2023-08-06T14:27:25;17.90;99.90
64689;DHT22;62504;46.070;14.492;2023-08-06T14:29:51;18.00;99.90
64689;DHT22;62504;46.070;14.492;2023-08-06T14:32:17;18.10;99.90
64689;DHT22;62504;46.070;14.492;2023-08-06T14:34:46;18.10;99.90
64689;DHT22;62504;46.070;14.492;2023-08-06T14:37:12;18.00;99.90
64689;DHT22;62504;46.070;14.492;2023-08-06T14:39:38;18.10;99.90
64689;DHT22;62504;46.070;14.492;2023-08-06T14:42:04;18.30;99.90
64689;DHT22;62504;46.070;14.492;2023-08-06T14:44:30;18.40;99.90
64689;DHT22;62504;46.070;14.492;2023-08-06T14:46:56;18.50;99.90
64689;DHT22;62504;46.070;14.492;2023-08-06T14:49:23;18.40;99.90
64689;DHT22;62504;46.070;14.492;2023-08-06T14:51:48;18.40;99.90
64689;DHT22;62504;46.070;14.492;2023-08-06T14:54:14;18.50;99.90
64689;DHT22;62504;46.070;14.492;2023-08-06T14:56:40;18.50;99.90
64689;DHT22;62504;46.070;14.492;2023-08-06T14:59:05;18.40;99.90
64689;DHT22;62504;46.070;14.492;2023-08-06T15:01:31;18.40;99.90
64689;DHT22;62504;46.070;14.492;2023-08-06T15:03:57;18.20;99.90
64689;DHT22;62504;46.070;14.492;2023-08-06T15:06:22;18.20;99.90
64689;DHT22;62504;46.070;14.492;2023-08-06T15:08:48;18.00;99.90
64689;DHT22;62504;46.070;14.492;2023-08-06T15:11:14;17.90;99.90
64689;DHT22;62504;46.070;14.492;2023-08-06T15:13:42;17.90;99.90
64689;DHT22;62504;46.070;14.492;2023-08-06T15:16:08;18.10;99.90
64689;DHT22;62504;46.070;14.492;2023-08-06T15:18:34;18.20;99.90
64689;DHT22;62504;46.070;14.492;2023-08-06T15:20:59;18.20;99.90
64689;DHT22;62504;46.070;14.492;2023-08-06T15:23:25;18.20;99.90
64689;DHT22;62504;46.070;14.492;2023-08-06T15:25:51;18.20;99.90
64689;DHT22;62504;46.070;14.492;2023-08-06T15:28:17;18.30;99.90
64689;DHT22;62504;46.070;14.492;2023-08-06T15:30:49;18.20;99.90